N51CP KOFK-KFSD
Flight info
| Callsign | N51CP |
|---|---|
| Flight time | 0h 27m |
| Altitude | 17000 |
| Route | OFK OBERT ROKKY |
| Aircraft | TBM9/L-SDFGRWY/S |
Departure
| Time | 2026-05-09 11:12 |
|---|---|
| Airport | Karl Stefan Memorial Airport (KOFK) |
Arrival
| Time | 2026-05-09 11:40 |
|---|---|
| Airport | Sioux Falls Regional Airport (KFSD) |
| Time | Latitude | Longitude | Altitude | Speed | Heading |
|---|---|---|---|---|---|
| 2026-05-09 11:07 | 41.98504 | -97.43067 | 1544 ft | 0 kts | 18° |
| 2026-05-09 11:09 | 41.98520 | -97.43075 | 1544 ft | 9 kts | 323° |
| 2026-05-09 11:09 | 41.98595 | -97.43076 | 1545 ft | 14 kts | 19° |
| 2026-05-09 11:09 | 41.98708 | -97.43022 | 1541 ft | 19 kts | 19° |
| 2026-05-09 11:09 | 41.98842 | -97.42959 | 1535 ft | 22 kts | 19° |
| 2026-05-09 11:10 | 41.98980 | -97.42893 | 1533 ft | 17 kts | 19° |
| 2026-05-09 11:10 | 41.99086 | -97.42867 | 1529 ft | 14 kts | 338° |
| 2026-05-09 11:10 | 41.99182 | -97.42927 | 1527 ft | 16 kts | 336° |
| 2026-05-09 11:10 | 41.99212 | -97.42946 | 1526 ft | 0 kts | 332° |
| 2026-05-09 11:11 | 41.99234 | -97.42970 | 1525 ft | 10 kts | 305° |
| 2026-05-09 11:11 | 41.99218 | -97.43064 | 1525 ft | 13 kts | 204° |
| 2026-05-09 11:11 | 41.99028 | -97.43155 | 1531 ft | 52 kts | 200° |
| 2026-05-09 11:11 | 41.98533 | -97.43389 | 1552 ft | 96 kts | 198° |
| 2026-05-09 11:12 | 41.97832 | -97.43678 | 1733 ft | 116 kts | 195° |
| 2026-05-09 11:12 | 41.96988 | -97.43995 | 1951 ft | 135 kts | 196° |
| 2026-05-09 11:12 | 41.96011 | -97.44329 | 2198 ft | 154 kts | 185° |
| 2026-05-09 11:12 | 41.94966 | -97.43812 | 2474 ft | 174 kts | 139° |
| 2026-05-09 11:13 | 41.94491 | -97.42306 | 2944 ft | 185 kts | 95° |
| 2026-05-09 11:13 | 41.94889 | -97.40678 | 3309 ft | 191 kts | 49° |
| 2026-05-09 11:13 | 41.95982 | -97.39559 | 3414 ft | 209 kts | 25° |
| 2026-05-09 11:13 | 41.97327 | -97.38570 | 3412 ft | 230 kts | 25° |
| 2026-05-09 11:14 | 41.98758 | -97.37527 | 3561 ft | 237 kts | 24° |
| 2026-05-09 11:14 | 42.00198 | -97.36476 | 3879 ft | 235 kts | 24° |
| 2026-05-09 11:14 | 42.01641 | -97.35406 | 4161 ft | 236 kts | 24° |
| 2026-05-09 11:14 | 42.03080 | -97.34320 | 4444 ft | 236 kts | 24° |
| 2026-05-09 11:15 | 42.04505 | -97.33217 | 4759 ft | 235 kts | 24° |
| 2026-05-09 11:15 | 42.05903 | -97.32115 | 5026 ft | 235 kts | 24° |
| 2026-05-09 11:15 | 42.07314 | -97.30996 | 5306 ft | 235 kts | 24° |
| 2026-05-09 11:15 | 42.08725 | -97.29872 | 5581 ft | 235 kts | 24° |
| 2026-05-09 11:16 | 42.10126 | -97.28752 | 5870 ft | 234 kts | 24° |
| 2026-05-09 11:16 | 42.11521 | -97.27626 | 6151 ft | 233 kts | 24° |
| 2026-05-09 11:16 | 42.12902 | -97.26516 | 6406 ft | 233 kts | 24° |
| 2026-05-09 11:16 | 42.14296 | -97.25389 | 6632 ft | 234 kts | 24° |
| 2026-05-09 11:17 | 42.15726 | -97.24360 | 6834 ft | 230 kts | 14° |
| 2026-05-09 11:17 | 42.17244 | -97.23709 | 7091 ft | 227 kts | 9° |
| 2026-05-09 11:17 | 42.18762 | -97.23093 | 7341 ft | 227 kts | 11° |
| 2026-05-09 11:17 | 42.20259 | -97.22440 | 7587 ft | 228 kts | 11° |
| 2026-05-09 11:18 | 42.21773 | -97.21773 | 7813 ft | 229 kts | 11° |
| 2026-05-09 11:18 | 42.23297 | -97.21107 | 8042 ft | 229 kts | 11° |
| 2026-05-09 11:18 | 42.24817 | -97.20444 | 8288 ft | 229 kts | 11° |
| 2026-05-09 11:18 | 42.26324 | -97.19788 | 8494 ft | 230 kts | 11° |
| 2026-05-09 11:19 | 42.27855 | -97.19119 | 8726 ft | 231 kts | 11° |
| 2026-05-09 11:19 | 42.29385 | -97.18448 | 8948 ft | 231 kts | 11° |
| 2026-05-09 11:19 | 42.30924 | -97.17776 | 9171 ft | 232 kts | 11° |
| 2026-05-09 11:19 | 42.32444 | -97.17110 | 9403 ft | 232 kts | 11° |
| 2026-05-09 11:20 | 42.33984 | -97.16436 | 9629 ft | 232 kts | 11° |
| 2026-05-09 11:20 | 42.35542 | -97.15754 | 9826 ft | 234 kts | 11° |
| 2026-05-09 11:20 | 42.37076 | -97.15082 | 10029 ft | 234 kts | 11° |
| 2026-05-09 11:20 | 42.38629 | -97.14399 | 10229 ft | 234 kts | 10° |
| 2026-05-09 11:21 | 42.40183 | -97.13719 | 10443 ft | 234 kts | 10° |
| 2026-05-09 11:21 | 42.41735 | -97.13037 | 10637 ft | 235 kts | 10° |
| 2026-05-09 11:21 | 42.43297 | -97.12351 | 10838 ft | 236 kts | 10° |
| 2026-05-09 11:21 | 42.44841 | -97.11672 | 11032 ft | 236 kts | 10° |
| 2026-05-09 11:22 | 42.46408 | -97.10982 | 11223 ft | 236 kts | 10° |
| 2026-05-09 11:22 | 42.47978 | -97.10293 | 11406 ft | 237 kts | 10° |
| 2026-05-09 11:22 | 42.49528 | -97.09611 | 11584 ft | 237 kts | 9° |
| 2026-05-09 11:22 | 42.51101 | -97.08917 | 11774 ft | 238 kts | 9° |
| 2026-05-09 11:23 | 42.52690 | -97.08218 | 11968 ft | 238 kts | 9° |
| 2026-05-09 11:23 | 42.54251 | -97.07530 | 12136 ft | 239 kts | 9° |
| 2026-05-09 11:23 | 42.55838 | -97.06829 | 12324 ft | 239 kts | 9° |
| 2026-05-09 11:23 | 42.57427 | -97.06128 | 12517 ft | 240 kts | 9° |
| 2026-05-09 11:24 | 42.59020 | -97.05425 | 12694 ft | 241 kts | 9° |
| 2026-05-09 11:24 | 42.60615 | -97.04720 | 12867 ft | 241 kts | 9° |
| 2026-05-09 11:24 | 42.62213 | -97.04014 | 13046 ft | 242 kts | 9° |
| 2026-05-09 11:24 | 42.63797 | -97.03314 | 13211 ft | 242 kts | 9° |
| 2026-05-09 11:25 | 42.65407 | -97.02603 | 13389 ft | 243 kts | 9° |
| 2026-05-09 11:25 | 42.67017 | -97.01886 | 13568 ft | 243 kts | 9° |
| 2026-05-09 11:25 | 42.68629 | -97.01172 | 13734 ft | 243 kts | 8° |
| 2026-05-09 11:25 | 42.70225 | -97.00466 | 13877 ft | 244 kts | 8° |
| 2026-05-09 11:26 | 42.71858 | -96.99862 | 14000 ft | 239 kts | 0° |
| 2026-05-09 11:26 | 42.73487 | -96.99543 | 14157 ft | 239 kts | 360° |
| 2026-05-09 11:26 | 42.75137 | -96.99173 | 14294 ft | 240 kts | 1° |
| 2026-05-09 11:26 | 42.76790 | -96.98804 | 14437 ft | 240 kts | 0° |
| 2026-05-09 11:27 | 42.78445 | -96.98447 | 14580 ft | 241 kts | 0° |
| 2026-05-09 11:27 | 42.80081 | -96.98094 | 14719 ft | 241 kts | 0° |
| 2026-05-09 11:27 | 42.81746 | -96.97732 | 14881 ft | 241 kts | 360° |
| 2026-05-09 11:27 | 42.83407 | -96.97370 | 15046 ft | 241 kts | 360° |
| 2026-05-09 11:28 | 42.85080 | -96.97010 | 15086 ft | 245 kts | 0° |
| 2026-05-09 11:28 | 42.86762 | -96.96643 | 15085 ft | 250 kts | 0° |
| 2026-05-09 11:28 | 42.88502 | -96.96262 | 15056 ft | 254 kts | 0° |
| 2026-05-09 11:28 | 42.90290 | -96.95872 | 14780 ft | 265 kts | 1° |
| 2026-05-09 11:29 | 42.92128 | -96.95461 | 14439 ft | 267 kts | 1° |
| 2026-05-09 11:29 | 42.93945 | -96.95061 | 14089 ft | 266 kts | 1° |
| 2026-05-09 11:29 | 42.95783 | -96.94665 | 13736 ft | 266 kts | 1° |
| 2026-05-09 11:29 | 42.97608 | -96.94269 | 13362 ft | 265 kts | 1° |
| 2026-05-09 11:30 | 42.99399 | -96.93880 | 13011 ft | 263 kts | 1° |
| 2026-05-09 11:30 | 43.01216 | -96.93483 | 12659 ft | 262 kts | 1° |
| 2026-05-09 11:30 | 43.03023 | -96.93085 | 12319 ft | 262 kts | 1° |
| 2026-05-09 11:30 | 43.04804 | -96.92697 | 11964 ft | 261 kts | 1° |
| 2026-05-09 11:31 | 43.06607 | -96.92303 | 11621 ft | 261 kts | 1° |
| 2026-05-09 11:31 | 43.08403 | -96.91910 | 11275 ft | 261 kts | 2° |
| 2026-05-09 11:31 | 43.10177 | -96.91521 | 10935 ft | 261 kts | 2° |
| 2026-05-09 11:31 | 43.11974 | -96.91126 | 10590 ft | 261 kts | 2° |
| 2026-05-09 11:32 | 43.13778 | -96.90729 | 10244 ft | 262 kts | 2° |
| 2026-05-09 11:32 | 43.15578 | -96.90335 | 9896 ft | 262 kts | 3° |
| 2026-05-09 11:32 | 43.17389 | -96.89937 | 9540 ft | 262 kts | 3° |
| 2026-05-09 11:32 | 43.19173 | -96.89544 | 9186 ft | 262 kts | 3° |
| 2026-05-09 11:33 | 43.20978 | -96.89146 | 8840 ft | 261 kts | 3° |
| 2026-05-09 11:33 | 43.22764 | -96.88757 | 8504 ft | 261 kts | 2° |
| 2026-05-09 11:33 | 43.26367 | -96.87957 | 7805 ft | 261 kts | 2° |
| 2026-05-09 11:34 | 43.28168 | -96.87563 | 7464 ft | 261 kts | 2° |
| 2026-05-09 11:34 | 43.29942 | -96.87170 | 7125 ft | 260 kts | 2° |
| 2026-05-09 11:34 | 43.31738 | -96.86773 | 6781 ft | 260 kts | 2° |
| 2026-05-09 11:34 | 43.33528 | -96.86380 | 6440 ft | 259 kts | 2° |
| 2026-05-09 11:35 | 43.35286 | -96.85990 | 6096 ft | 258 kts | 2° |
| 2026-05-09 11:35 | 43.37061 | -96.85599 | 5748 ft | 257 kts | 3° |
| 2026-05-09 11:35 | 43.38826 | -96.85206 | 5408 ft | 255 kts | 4° |
| 2026-05-09 11:35 | 43.40579 | -96.84817 | 5073 ft | 253 kts | 4° |
| 2026-05-09 11:36 | 43.42300 | -96.84438 | 4742 ft | 252 kts | 4° |
| 2026-05-09 11:36 | 43.44025 | -96.84034 | 4402 ft | 249 kts | 7° |
| 2026-05-09 11:36 | 43.45726 | -96.83658 | 4071 ft | 245 kts | 5° |
| 2026-05-09 11:36 | 43.47414 | -96.83317 | 3748 ft | 243 kts | 7° |
| 2026-05-09 11:37 | 43.49040 | -96.82824 | 3446 ft | 240 kts | 17° |
| 2026-05-09 11:37 | 43.50489 | -96.81823 | 3383 ft | 225 kts | 28° |
| 2026-05-09 11:37 | 43.51694 | -96.80638 | 3004 ft | 197 kts | 34° |
| 2026-05-09 11:37 | 43.52718 | -96.79546 | 2630 ft | 173 kts | 31° |
| 2026-05-09 11:38 | 43.53613 | -96.78708 | 2416 ft | 143 kts | 32° |
| 2026-05-09 11:38 | 43.54308 | -96.78087 | 2267 ft | 106 kts | 29° |
| 2026-05-09 11:38 | 43.54905 | -96.77558 | 2110 ft | 98 kts | 28° |
| 2026-05-09 11:38 | 43.55487 | -96.77038 | 1915 ft | 99 kts | 30° |
| 2026-05-09 11:39 | 43.56060 | -96.76515 | 1743 ft | 97 kts | 32° |
| 2026-05-09 11:39 | 43.56592 | -96.75997 | 1636 ft | 93 kts | 33° |
| 2026-05-09 11:39 | 43.57121 | -96.75504 | 1512 ft | 93 kts | 31° |
| 2026-05-09 11:40 | 43.58049 | -96.74624 | 1425 ft | 60 kts | 35° |
| 2026-05-09 11:40 | 43.58348 | -96.74334 | 1423 ft | 46 kts | 33° |
| 2026-05-09 11:40 | 43.58547 | -96.74147 | 1424 ft | 27 kts | 32° |
| 2026-05-09 11:40 | 43.58678 | -96.74052 | 1425 ft | 18 kts | 1° |
| 2026-05-09 11:41 | 43.58809 | -96.74119 | 1425 ft | 21 kts | 335° |
| 2026-05-09 11:41 | 43.58935 | -96.74199 | 1425 ft | 19 kts | 335° |
| 2026-05-09 11:41 | 43.59047 | -96.74272 | 1425 ft | 17 kts | 335° |
| 2026-05-09 11:41 | 43.59134 | -96.74293 | 1425 ft | 11 kts | 56° |
| 2026-05-09 11:42 | 43.59165 | -96.74188 | 1425 ft | 13 kts | 87° |
| 2026-05-09 11:42 | 43.59131 | -96.74117 | 1425 ft | 0 kts | 154° |